Troy, Idaho
Current Conditions -  °F | °C
As of 11:53 PM on Sunday 23 Nov 2014 (Local Time) from KPUW Reporting Station
Clear Clear  
Wind Chill: 27°   Ceiling: Unl
Heat Index: 36°   Visibility: 10mi
Dew Point: 32°   Wind: 14mph
Humidity: 86%   Direction: 260°W
Pressure: 30.21"   Gusts: 20mph
Location:  46.74°N, 116.77°W
Report Text: KPUW 240753Z AUTO 26012G17KT 10SM CLR 02/00 A3021 RMK AO2 SLP245 T00220000 400780017
Loading
Personal Weather Stations






























Interactive Weather Map New forecast layout! Learn more

10-Day Weather Forecast

Advertisements
Track Severe Weather on mobile